sensor_id;sensor_type;location;lat;lon;timestamp;temperature;humidity
17178;DHT22;8704;52.006;4.374;2024-03-29T13:18:27;17.00;99.90
17178;DHT22;8704;52.006;4.374;2024-03-29T13:20:54;17.10;99.90
17178;DHT22;8704;52.006;4.374;2024-03-29T13:23:22;17.30;99.90
17178;DHT22;8704;52.006;4.374;2024-03-29T13:25:49;17.50;99.90
17178;DHT22;8704;52.006;4.374;2024-03-29T13:28:18;17.50;99.90
17178;DHT22;8704;52.006;4.374;2024-03-29T13:30:46;16.90;99.90
17178;DHT22;8704;52.006;4.374;2024-03-29T13:33:18;17.10;99.90
17178;DHT22;8704;52.006;4.374;2024-03-29T13:35:46;17.10;99.90
17178;DHT22;8704;52.006;4.374;2024-03-29T13:38:13;17.10;99.90
17178;DHT22;8704;52.006;4.374;2024-03-29T13:40:40;17.10;99.90
17178;DHT22;8704;52.006;4.374;2024-03-29T13:43:08;16.90;99.90
17178;DHT22;8704;52.006;4.374;2024-03-29T13:45:35;17.50;99.90
17178;DHT22;8704;52.006;4.374;2024-03-29T13:48:02;17.00;99.90
17178;DHT22;8704;52.006;4.374;2024-03-29T13:50:31;17.10;99.90
17178;DHT22;8704;52.006;4.374;2024-03-29T13:52:58;17.00;99.90
17178;DHT22;8704;52.006;4.374;2024-03-29T13:55:25;16.90;99.90
17178;DHT22;8704;52.006;4.374;2024-03-29T13:57:53;16.90;99.90
17178;DHT22;8704;52.006;4.374;2024-03-29T14:00:20;17.00;99.90
17178;DHT22;8704;52.006;4.374;2024-03-29T14:02:47;17.00;99.90
17178;DHT22;8704;52.006;4.374;2024-03-29T14:05:15;16.90;99.90
17178;DHT22;8704;52.006;4.374;2024-03-29T14:07:43;16.80;99.90
17178;DHT22;8704;52.006;4.374;2024-03-29T14:10:10;17.00;99.90
17178;DHT22;8704;52.006;4.374;2024-03-29T14:12:37;16.90;99.90
17178;DHT22;8704;52.006;4.374;2024-03-29T14:15:05;16.90;99.90
17178;DHT22;8704;52.006;4.374;2024-03-29T14:17:33;16.90;99.90
17178;DHT22;8704;52.006;4.374;2024-03-29T14:20:01;16.60;99.90
17178;DHT22;8704;52.006;4.374;2024-03-29T14:22:28;16.60;99.90
17178;DHT22;8704;52.006;4.374;2024-03-29T14:25:00;17.00;99.90
17178;DHT22;8704;52.006;4.374;2024-03-29T14:27:29;17.00;99.90
17178;DHT22;8704;52.006;4.374;2024-03-29T14:29:56;17.00;99.90
17178;DHT22;8704;52.006;4.374;2024-03-29T14:32:24;17.10;99.90
17178;DHT22;8704;52.006;4.374;2024-03-29T14:34:51;17.40;99.90
17178;DHT22;8704;52.006;4.374;2024-03-29T14:37:18;17.50;99.90
17178;DHT22;8704;52.006;4.374;2024-03-29T14:39:45;17.40;99.90
17178;DHT22;8704;52.006;4.374;2024-03-29T14:42:14;17.40;99.90
17178;DHT22;8704;52.006;4.374;2024-03-29T14:44:47;17.40;99.90
17178;DHT22;8704;52.006;4.374;2024-03-29T14:47:16;17.50;99.90
17178;DHT22;8704;52.006;4.374;2024-03-29T14:49:43;17.50;99.90
17178;DHT22;8704;52.006;4.374;2024-03-29T14:52:13;17.50;99.90
17178;DHT22;8704;52.006;4.374;2024-03-29T14:54:40;17.30;99.90
17178;DHT22;8704;52.006;4.374;2024-03-29T14:57:08;17.40;99.90
17178;DHT22;8704;52.006;4.374;2024-03-29T14:59:37;17.40;99.90
17178;DHT22;8704;52.006;4.374;2024-03-29T15:02:05;17.50;99.90
17178;DHT22;8704;52.006;4.374;2024-03-29T15:04:32;17.20;99.90
17178;DHT22;8704;52.006;4.374;2024-03-29T15:06:59;17.10;99.90
17178;DHT22;8704;52.006;4.374;2024-03-29T15:09:26;17.00;99.90
17178;DHT22;8704;52.006;4.374;2024-03-29T15:11:53;16.90;99.90
17178;DHT22;8704;52.006;4.374;2024-03-29T15:14:20;16.70;99.90
17178;DHT22;8704;52.006;4.374;2024-03-29T15:16:49;16.70;99.90
17178;DHT22;8704;52.006;4.374;2024-03-29T15:19:16;16.70;99.90
17178;DHT22;8704;52.006;4.374;2024-03-29T15:21:43;16.50;99.90
17178;DHT22;8704;52.006;4.374;2024-03-29T15:24:10;16.40;99.90
17178;DHT22;8704;52.006;4.374;2024-03-29T15:26:37;16.60;99.90
17178;DHT22;8704;52.006;4.374;2024-03-29T15:29:04;16.60;99.90
17178;DHT22;8704;52.006;4.374;2024-03-29T15:31:34;16.80;99.90
17178;DHT22;8704;52.006;4.374;2024-03-29T15:34:03;16.80;99.90
17178;DHT22;8704;52.006;4.374;2024-03-29T15:36:30;16.70;99.90
17178;DHT22;8704;52.006;4.374;2024-03-29T15:38:58;17.10;99.90
17178;DHT22;8704;52.006;4.374;2024-03-29T15:41:31;16.50;99.90
17178;DHT22;8704;52.006;4.374;2024-03-29T15:43:59;16.30;99.90
17178;DHT22;8704;52.006;4.374;2024-03-29T15:46:27;16.40;99.90
17178;DHT22;8704;52.006;4.374;2024-03-29T15:48:54;16.30;99.90
17178;DHT22;8704;52.006;4.374;2024-03-29T15:51:23;15.90;99.90
17178;DHT22;8704;52.006;4.374;2024-03-29T15:53:51;16.40;99.90
17178;DHT22;8704;52.006;4.374;2024-03-29T15:56:20;16.50;99.90
17178;DHT22;8704;52.006;4.374;2024-03-29T15:58:47;16.50;99.90
17178;DHT22;8704;52.006;4.374;2024-03-29T16:01:16;16.50;99.90
17178;DHT22;8704;52.006;4.374;2024-03-29T16:03:43;16.40;99.90
17178;DHT22;8704;52.006;4.374;2024-03-29T16:06:10;16.30;99.90
17178;DHT22;8704;52.006;4.374;2024-03-29T16:08:39;16.30;99.90
17178;DHT22;8704;52.006;4.374;2024-03-29T16:11:06;16.50;99.90
17178;DHT22;8704;52.006;4.374;2024-03-29T16:13:34;16.20;99.90
17178;DHT22;8704;52.006;4.374;2024-03-29T16:16:02;15.90;99.90
17178;DHT22;8704;52.006;4.374;2024-03-29T16:18:31;15.90;99.90
17178;DHT22;8704;52.006;4.374;2024-03-29T16:20:59;15.80;99.90
17178;DHT22;8704;52.006;4.374;2024-03-29T16:23:25;15.80;99.90
17178;DHT22;8704;52.006;4.374;2024-03-29T16:25:56;15.60;99.90
17178;DHT22;8704;52.006;4.374;2024-03-29T16:28:23;15.70;99.90
17178;DHT22;8704;52.006;4.374;2024-03-29T16:30:51;15.90;99.90
17178;DHT22;8704;52.006;4.374;2024-03-29T16:33:18;15.70;99.90
17178;DHT22;8704;52.006;4.374;2024-03-29T16:35:45;15.60;99.90
17178;DHT22;8704;52.006;4.374;2024-03-29T16:38:12;15.60;99.90
17178;DHT22;8704;52.006;4.374;2024-03-29T16:40:39;15.80;99.90
17178;DHT22;8704;52.006;4.374;2024-03-29T16:43:07;15.60;99.90
17178;DHT22;8704;52.006;4.374;2024-03-29T16:45:39;15.60;99.90
17178;DHT22;8704;52.006;4.374;2024-03-29T16:48:05;15.50;99.90
17178;DHT22;8704;52.006;4.374;2024-03-29T16:50:33;15.60;99.90
17178;DHT22;8704;52.006;4.374;2024-03-29T16:53:00;15.60;99.90
17178;DHT22;8704;52.006;4.374;2024-03-29T16:55:27;15.90;99.90
17178;DHT22;8704;52.006;4.374;2024-03-29T16:57:54;15.40;99.90
17178;DHT22;8704;52.006;4.374;2024-03-29T17:00:23;15.20;99.90
17178;DHT22;8704;52.006;4.374;2024-03-29T17:02:51;15.10;99.90
17178;DHT22;8704;52.006;4.374;2024-03-29T17:05:18;15.10;99.90
17178;DHT22;8704;52.006;4.374;2024-03-29T17:07:44;15.00;99.90
17178;DHT22;8704;52.006;4.374;2024-03-29T17:10:12;14.90;99.90
17178;DHT22;8704;52.006;4.374;2024-03-29T17:12:38;14.90;99.90
17178;DHT22;8704;52.006;4.374;2024-03-29T17:15:05;14.90;99.90
17178;DHT22;8704;52.006;4.374;2024-03-29T17:17:33;14.80;99.90
17178;DHT22;8704;52.006;4.374;2024-03-29T17:20:00;14.80;99.90
17178;DHT22;8704;52.006;4.374;2024-03-29T17:22:26;14.80;99.90
17178;DHT22;8704;52.006;4.374;2024-03-29T17:24:53;14.70;99.90
17178;DHT22;8704;52.006;4.374;2024-03-29T17:27:21;14.70;99.90
17178;DHT22;8704;52.006;4.374;2024-03-29T17:29:48;14.70;99.90
17178;DHT22;8704;52.006;4.374;2024-03-29T17:32:14;14.70;99.90
17178;DHT22;8704;52.006;4.374;2024-03-29T17:34:43;14.60;99.90
17178;DHT22;8704;52.006;4.374;2024-03-29T17:37:10;14.60;99.90
17178;DHT22;8704;52.006;4.374;2024-03-29T17:39:37;14.50;99.90
17178;DHT22;8704;52.006;4.374;2024-03-29T17:42:03;14.40;99.90
17178;DHT22;8704;52.006;4.374;2024-03-29T17:44:30;14.40;99.90
17178;DHT22;8704;52.006;4.374;2024-03-29T17:46:56;14.30;99.90
17178;DHT22;8704;52.006;4.374;2024-03-29T17:49:23;14.30;99.90
17178;DHT22;8704;52.006;4.374;2024-03-29T17:51:51;14.20;99.90
17178;DHT22;8704;52.006;4.374;2024-03-29T17:54:18;14.10;99.90
17178;DHT22;8704;52.006;4.374;2024-03-29T17:56:44;14.10;99.90
17178;DHT22;8704;52.006;4.374;2024-03-29T17:59:11;13.90;99.90
17178;DHT22;8704;52.006;4.374;2024-03-29T18:01:40;13.90;99.90
17178;DHT22;8704;52.006;4.374;2024-03-29T18:04:08;13.90;99.90
17178;DHT22;8704;52.006;4.374;2024-03-29T18:06:34;13.80;99.90
17178;DHT22;8704;52.006;4.374;2024-03-29T18:09:03;14.40;99.90
17178;DHT22;8704;52.006;4.374;2024-03-29T18:11:30;13.70;99.90
17178;DHT22;8704;52.006;4.374;2024-03-29T18:13:57;13.70;99.90
17178;DHT22;8704;52.006;4.374;2024-03-29T18:16:23;13.60;99.90
17178;DHT22;8704;52.006;4.374;2024-03-29T18:18:50;13.90;99.90
17178;DHT22;8704;52.006;4.374;2024-03-29T18:21:16;13.60;99.90
17178;DHT22;8704;52.006;4.374;2024-03-29T18:23:43;13.60;99.90
17178;DHT22;8704;52.006;4.374;2024-03-29T18:26:11;13.40;99.90
17178;DHT22;8704;52.006;4.374;2024-03-29T18:28:38;14.00;99.90
17178;DHT22;8704;52.006;4.374;2024-03-29T18:31:04;13.30;99.90
17178;DHT22;8704;52.006;4.374;2024-03-29T18:33:34;13.20;99.90
17178;DHT22;8704;52.006;4.374;2024-03-29T18:36:01;13.20;99.90
17178;DHT22;8704;52.006;4.374;2024-03-29T18:38:28;13.60;99.90
17178;DHT22;8704;52.006;4.374;2024-03-29T18:40:58;13.10;99.90
17178;DHT22;8704;52.006;4.374;2024-03-29T18:43:27;13.00;99.90
17178;DHT22;8704;52.006;4.374;2024-03-29T18:45:53;13.00;99.90
17178;DHT22;8704;52.006;4.374;2024-03-29T18:48:20;13.30;99.90
17178;DHT22;8704;52.006;4.374;2024-03-29T18:50:52;12.90;99.90
17178;DHT22;8704;52.006;4.374;2024-03-29T18:53:20;12.90;99.90
17178;DHT22;8704;52.006;4.374;2024-03-29T18:55:57;12.80;99.90
17178;DHT22;8704;52.006;4.374;2024-03-29T18:58:25;12.80;99.90
17178;DHT22;8704;52.006;4.374;2024-03-29T19:00:52;12.80;99.90
17178;DHT22;8704;52.006;4.374;2024-03-29T19:03:20;13.00;99.90
17178;DHT22;8704;52.006;4.374;2024-03-29T19:05:46;12.90;99.90
17178;DHT22;8704;52.006;4.374;2024-03-29T19:08:14;12.70;99.90
17178;DHT22;8704;52.006;4.374;2024-03-29T19:10:40;12.70;99.90
17178;DHT22;8704;52.006;4.374;2024-03-29T19:13:07;13.30;99.90
17178;DHT22;8704;52.006;4.374;2024-03-29T19:15:33;12.60;99.90
17178;DHT22;8704;52.006;4.374;2024-03-29T19:18:02;12.90;99.90
17178;DHT22;8704;52.006;4.374;2024-03-29T19:20:28;12.60;99.90
17178;DHT22;8704;52.006;4.374;2024-03-29T19:22:55;13.50;99.90
17178;DHT22;8704;52.006;4.374;2024-03-29T19:25:21;12.60;99.90
17178;DHT22;8704;52.006;4.374;2024-03-29T19:27:48;12.50;99.90
17178;DHT22;8704;52.006;4.374;2024-03-29T19:30:15;12.80;99.90
17178;DHT22;8704;52.006;4.374;2024-03-29T19:32:55;12.50;99.90
17178;DHT22;8704;52.006;4.374;2024-03-29T19:35:23;12.80;99.90
17178;DHT22;8704;52.006;4.374;2024-03-29T19:37:51;13.10;99.90
17178;DHT22;8704;52.006;4.374;2024-03-29T19:40:19;12.40;99.90
17178;DHT22;8704;52.006;4.374;2024-03-29T19:42:46;13.10;99.90
17178;DHT22;8704;52.006;4.374;2024-03-29T19:45:13;13.10;99.90
17178;DHT22;8704;52.006;4.374;2024-03-29T19:47:40;12.30;99.90
17178;DHT22;8704;52.006;4.374;2024-03-29T19:50:06;12.30;99.90
17178;DHT22;8704;52.006;4.374;2024-03-29T19:52:35;12.30;99.90
17178;DHT22;8704;52.006;4.374;2024-03-29T19:55:01;12.30;99.90
17178;DHT22;8704;52.006;4.374;2024-03-29T19:57:28;12.30;99.90
17178;DHT22;8704;52.006;4.374;2024-03-29T19:59:55;12.90;99.90
17178;DHT22;8704;52.006;4.374;2024-03-29T20:02:22;12.20;99.90
17178;DHT22;8704;52.006;4.374;2024-03-29T20:04:48;12.20;99.90
17178;DHT22;8704;52.006;4.374;2024-03-29T20:07:15;12.20;99.90
17178;DHT22;8704;52.006;4.374;2024-03-29T20:09:43;12.40;99.90
17178;DHT22;8704;52.006;4.374;2024-03-29T20:12:10;12.30;99.90
17178;DHT22;8704;52.006;4.374;2024-03-29T20:14:36;12.20;99.90
17178;DHT22;8704;52.006;4.374;2024-03-29T20:17:04;12.10;99.90
17178;DHT22;8704;52.006;4.374;2024-03-29T20:19:30;12.10;99.90
17178;DHT22;8704;52.006;4.374;2024-03-29T20:21:57;12.10;99.90
17178;DHT22;8704;52.006;4.374;2024-03-29T20:24:23;12.20;99.90
17178;DHT22;8704;52.006;4.374;2024-03-29T20:26:53;12.20;99.90
17178;DHT22;8704;52.006;4.374;2024-03-29T20:29:19;12.20;99.90
17178;DHT22;8704;52.006;4.374;2024-03-29T20:31:46;12.00;99.90
17178;DHT22;8704;52.006;4.374;2024-03-29T20:34:13;12.00;99.90
17178;DHT22;8704;52.006;4.374;2024-03-29T20:36:41;12.20;99.90
17178;DHT22;8704;52.006;4.374;2024-03-29T20:39:07;12.00;99.90
17178;DHT22;8704;52.006;4.374;2024-03-29T20:41:35;12.30;99.90
17178;DHT22;8704;52.006;4.374;2024-03-29T20:44:03;12.00;99.90
17178;DHT22;8704;52.006;4.374;2024-03-29T20:46:30;12.00;99.90
17178;DHT22;8704;52.006;4.374;2024-03-29T20:48:58;12.00;99.90
17178;DHT22;8704;52.006;4.374;2024-03-29T20:51:25;12.00;99.90
17178;DHT22;8704;52.006;4.374;2024-03-29T20:53:51;12.30;99.90
17178;DHT22;8704;52.006;4.374;2024-03-29T20:56:18;11.90;99.90
17178;DHT22;8704;52.006;4.374;2024-03-29T20:58:45;12.30;99.90
17178;DHT22;8704;52.006;4.374;2024-03-29T21:01:14;11.90;99.90
17178;DHT22;8704;52.006;4.374;2024-03-29T21:04:01;11.90;99.90
17178;DHT22;8704;52.006;4.374;2024-03-29T21:06:46;11.90;99.90
17178;DHT22;8704;52.006;4.374;2024-03-29T21:09:13;11.90;99.90
17178;DHT22;8704;52.006;4.374;2024-03-29T21:11:41;11.90;99.90
17178;DHT22;8704;52.006;4.374;2024-03-29T21:14:08;11.10;99.90
17178;DHT22;8704;52.006;4.374;2024-03-29T21:16:36;11.90;99.90
17178;DHT22;8704;52.006;4.374;2024-03-29T21:19:02;11.80;99.90
17178;DHT22;8704;52.006;4.374;2024-03-29T21:21:32;11.80;99.90
17178;DHT22;8704;52.006;4.374;2024-03-29T21:24:01;11.80;99.90
17178;DHT22;8704;52.006;4.374;2024-03-29T21:26:30;12.30;99.90
17178;DHT22;8704;52.006;4.374;2024-03-29T21:28:56;11.90;99.90
17178;DHT22;8704;52.006;4.374;2024-03-29T21:31:25;11.80;99.90
17178;DHT22;8704;52.006;4.374;2024-03-29T21:33:53;12.00;99.90
17178;DHT22;8704;52.006;4.374;2024-03-29T21:36:20;11.80;99.90
17178;DHT22;8704;52.006;4.374;2024-03-29T21:38:46;12.10;99.90
17178;DHT22;8704;52.006;4.374;2024-03-29T21:41:13;11.80;99.90
17178;DHT22;8704;52.006;4.374;2024-03-29T21:43:41;11.70;99.90
17178;DHT22;8704;52.006;4.374;2024-03-29T21:46:08;12.40;99.90
17178;DHT22;8704;52.006;4.374;2024-03-29T21:48:34;12.20;99.90
17178;DHT22;8704;52.006;4.374;2024-03-29T21:51:02;11.70;99.90
17178;DHT22;8704;52.006;4.374;2024-03-29T21:53:29;11.70;99.90
17178;DHT22;8704;52.006;4.374;2024-03-29T21:55:56;11.70;99.90
17178;DHT22;8704;52.006;4.374;2024-03-29T21:58:22;12.40;99.90
17178;DHT22;8704;52.006;4.374;2024-03-29T22:00:49;11.90;99.90
17178;DHT22;8704;52.006;4.374;2024-03-29T22:03:15;11.80;99.90
17178;DHT22;8704;52.006;4.374;2024-03-29T22:05:43;12.20;99.90
17178;DHT22;8704;52.006;4.374;2024-03-29T22:08:10;11.80;99.90
17178;DHT22;8704;52.006;4.374;2024-03-29T22:10:37;11.80;99.90
17178;DHT22;8704;52.006;4.374;2024-03-29T22:13:06;11.80;99.90
17178;DHT22;8704;52.006;4.374;2024-03-29T22:15:33;11.90;99.90
17178;DHT22;8704;52.006;4.374;2024-03-29T22:17:59;12.20;99.90
17178;DHT22;8704;52.006;4.374;2024-03-29T22:20:26;11.80;99.90
17178;DHT22;8704;52.006;4.374;2024-03-29T22:22:53;11.80;99.90
17178;DHT22;8704;52.006;4.374;2024-03-29T22:25:23;12.00;99.90
17178;DHT22;8704;52.006;4.374;2024-03-29T22:27:49;11.80;99.90
17178;DHT22;8704;52.006;4.374;2024-03-29T22:30:16;12.60;99.90
17178;DHT22;8704;52.006;4.374;2024-03-29T22:32:43;11.80;99.90
17178;DHT22;8704;52.006;4.374;2024-03-29T22:35:10;11.70;99.90
17178;DHT22;8704;52.006;4.374;2024-03-29T22:37:37;12.40;99.90
17178;DHT22;8704;52.006;4.374;2024-03-29T22:40:04;12.00;99.90
17178;DHT22;8704;52.006;4.374;2024-03-29T22:42:32;11.80;99.90
17178;DHT22;8704;52.006;4.374;2024-03-29T22:44:59;12.10;99.90
17178;DHT22;8704;52.006;4.374;2024-03-29T22:47:25;11.80;99.90
17178;DHT22;8704;52.006;4.374;2024-03-29T22:49:52;12.00;99.90
17178;DHT22;8704;52.006;4.374;2024-03-29T22:52:18;12.00;99.90
17178;DHT22;8704;52.006;4.374;2024-03-29T22:54:45;12.20;99.90
17178;DHT22;8704;52.006;4.374;2024-03-29T22:57:11;11.90;99.90
17178;DHT22;8704;52.006;4.374;2024-03-29T22:59:39;12.30;99.90
17178;DHT22;8704;52.006;4.374;2024-03-29T23:02:05;11.80;99.90
17178;DHT22;8704;52.006;4.374;2024-03-29T23:04:33;11.80;99.90
17178;DHT22;8704;52.006;4.374;2024-03-29T23:06:59;12.00;99.90
17178;DHT22;8704;52.006;4.374;2024-03-29T23:09:26;11.90;99.90
17178;DHT22;8704;52.006;4.374;2024-03-29T23:11:53;11.80;99.90
17178;DHT22;8704;52.006;4.374;2024-03-29T23:14:20;11.90;99.90
17178;DHT22;8704;52.006;4.374;2024-03-29T23:16:47;12.00;99.90
17178;DHT22;8704;52.006;4.374;2024-03-29T23:19:14;11.90;99.90
17178;DHT22;8704;52.006;4.374;2024-03-29T23:21:40;11.90;99.90
17178;DHT22;8704;52.006;4.374;2024-03-29T23:24:08;11.90;99.90
17178;DHT22;8704;52.006;4.374;2024-03-29T23:26:34;11.80;99.90
17178;DHT22;8704;52.006;4.374;2024-03-29T23:29:01;11.80;99.90
17178;DHT22;8704;52.006;4.374;2024-03-29T23:31:27;11.80;99.90
17178;DHT22;8704;52.006;4.374;2024-03-29T23:33:55;11.80;99.90
17178;DHT22;8704;52.006;4.374;2024-03-29T23:36:21;11.80;99.90
17178;DHT22;8704;52.006;4.374;2024-03-29T23:38:50;11.90;99.90
17178;DHT22;8704;52.006;4.374;2024-03-29T23:41:16;11.90;99.90
17178;DHT22;8704;52.006;4.374;2024-03-29T23:43:43;11.90;99.90
17178;DHT22;8704;52.006;4.374;2024-03-29T23:46:09;12.20;99.90
17178;DHT22;8704;52.006;4.374;2024-03-29T23:48:36;11.90;99.90
17178;DHT22;8704;52.006;4.374;2024-03-29T23:51:04;11.90;99.90
17178;DHT22;8704;52.006;4.374;2024-03-29T23:53:31;11.90;99.90
17178;DHT22;8704;52.006;4.374;2024-03-29T23:55:58;12.40;99.90
17178;DHT22;8704;52.006;4.374;2024-03-29T23:58:26;11.80;99.90
